sensor_id;sensor_type;location;lat;lon;timestamp;P1;durP1;ratioP1;P2;durP2;ratioP2
62535;SDS011;63050;47.514;18.920;2024-01-30T00:04:52;9.20;;;5.00;;
62535;SDS011;63050;47.514;18.920;2024-01-30T00:09:53;11.10;;;5.40;;
62535;SDS011;63050;47.514;18.920;2024-01-30T00:14:55;9.60;;;4.90;;
62535;SDS011;63050;47.514;18.920;2024-01-30T00:19:57;8.40;;;5.00;;
62535;SDS011;63050;47.514;18.920;2024-01-30T00:25:00;9.50;;;5.20;;
62535;SDS011;63050;47.514;18.920;2024-01-30T00:30:01;10.20;;;5.80;;
62535;SDS011;63050;47.514;18.920;2024-01-30T00:35:03;6.30;;;4.10;;
62535;SDS011;63050;47.514;18.920;2024-01-30T00:40:05;10.80;;;5.10;;
62535;SDS011;63050;47.514;18.920;2024-01-30T00:45:16;7.70;;;4.60;;
62535;SDS011;63050;47.514;18.920;2024-01-30T00:50:18;8.20;;;4.40;;
62535;SDS011;63050;47.514;18.920;2024-01-30T00:55:20;10.30;;;4.30;;
62535;SDS011;63050;47.514;18.920;2024-01-30T01:00:22;8.40;;;4.60;;
62535;SDS011;63050;47.514;18.920;2024-01-30T01:05:30;9.10;;;5.10;;
62535;SDS011;63050;47.514;18.920;2024-01-30T01:10:32;8.80;;;4.90;;
62535;SDS011;63050;47.514;18.920;2024-01-30T01:15:33;8.40;;;4.80;;
62535;SDS011;63050;47.514;18.920;2024-01-30T01:20:36;7.40;;;4.30;;
62535;SDS011;63050;47.514;18.920;2024-01-30T01:25:37;9.80;;;4.80;;
62535;SDS011;63050;47.514;18.920;2024-01-30T01:30:38;7.80;;;4.40;;
62535;SDS011;63050;47.514;18.920;2024-01-30T01:35:40;7.60;;;4.40;;
62535;SDS011;63050;47.514;18.920;2024-01-30T01:40:41;7.80;;;4.30;;
62535;SDS011;63050;47.514;18.920;2024-01-30T01:45:44;8.80;;;4.20;;
62535;SDS011;63050;47.514;18.920;2024-01-30T01:50:46;7.60;;;4.40;;
62535;SDS011;63050;47.514;18.920;2024-01-30T01:55:48;7.40;;;4.30;;
62535;SDS011;63050;47.514;18.920;2024-01-30T02:00:50;6.40;;;3.70;;
62535;SDS011;63050;47.514;18.920;2024-01-30T02:05:53;7.50;;;4.20;;
62535;SDS011;63050;47.514;18.920;2024-01-30T02:11:22;8.30;;;4.30;;
62535;SDS011;63050;47.514;18.920;2024-01-30T02:16:24;7.80;;;4.00;;
62535;SDS011;63050;47.514;18.920;2024-01-30T02:21:26;7.90;;;4.00;;
62535;SDS011;63050;47.514;18.920;2024-01-30T02:26:28;7.30;;;4.30;;
62535;SDS011;63050;47.514;18.920;2024-01-30T02:31:30;9.60;;;4.70;;
62535;SDS011;63050;47.514;18.920;2024-01-30T02:36:32;6.20;;;3.80;;
62535;SDS011;63050;47.514;18.920;2024-01-30T02:41:33;6.20;;;3.90;;
62535;SDS011;63050;47.514;18.920;2024-01-30T02:46:34;7.40;;;4.40;;
62535;SDS011;63050;47.514;18.920;2024-01-30T02:51:36;8.90;;;5.00;;
62535;SDS011;63050;47.514;18.920;2024-01-30T02:56:37;6.40;;;3.80;;
62535;SDS011;63050;47.514;18.920;2024-01-30T03:01:45;8.50;;;3.90;;
62535;SDS011;63050;47.514;18.920;2024-01-30T03:06:49;8.00;;;4.00;;
62535;SDS011;63050;47.514;18.920;2024-01-30T03:11:50;9.30;;;5.00;;
62535;SDS011;63050;47.514;18.920;2024-01-30T03:16:51;9.30;;;4.30;;
62535;SDS011;63050;47.514;18.920;2024-01-30T03:21:53;9.40;;;5.00;;
62535;SDS011;63050;47.514;18.920;2024-01-30T03:26:54;9.00;;;4.70;;
62535;SDS011;63050;47.514;18.920;2024-01-30T03:31:56;7.60;;;4.30;;
62535;SDS011;63050;47.514;18.920;2024-01-30T03:36:58;7.00;;;4.50;;
62535;SDS011;63050;47.514;18.920;2024-01-30T03:41:59;8.50;;;5.20;;
62535;SDS011;63050;47.514;18.920;2024-01-30T03:47:00;11.40;;;5.10;;
62535;SDS011;63050;47.514;18.920;2024-01-30T03:52:03;11.60;;;4.20;;
62535;SDS011;63050;47.514;18.920;2024-01-30T03:57:05;7.60;;;4.20;;
62535;SDS011;63050;47.514;18.920;2024-01-30T04:02:07;9.80;;;4.30;;
62535;SDS011;63050;47.514;18.920;2024-01-30T04:07:10;9.30;;;4.40;;
62535;SDS011;63050;47.514;18.920;2024-01-30T04:12:12;7.60;;;4.60;;
62535;SDS011;63050;47.514;18.920;2024-01-30T04:17:13;7.60;;;4.60;;
62535;SDS011;63050;47.514;18.920;2024-01-30T04:22:15;6.50;;;3.80;;
62535;SDS011;63050;47.514;18.920;2024-01-30T04:27:16;7.90;;;4.40;;
62535;SDS011;63050;47.514;18.920;2024-01-30T04:32:32;9.60;;;4.50;;
62535;SDS011;63050;47.514;18.920;2024-01-30T04:37:34;8.90;;;4.00;;
62535;SDS011;63050;47.514;18.920;2024-01-30T04:42:36;8.40;;;4.40;;
62535;SDS011;63050;47.514;18.920;2024-01-30T04:47:37;7.40;;;3.70;;
62535;SDS011;63050;47.514;18.920;2024-01-30T04:52:40;11.80;;;4.80;;
62535;SDS011;63050;47.514;18.920;2024-01-30T04:57:41;10.70;;;4.50;;
62535;SDS011;63050;47.514;18.920;2024-01-30T05:02:42;8.30;;;4.30;;
62535;SDS011;63050;47.514;18.920;2024-01-30T05:07:44;10.90;;;4.40;;
62535;SDS011;63050;47.514;18.920;2024-01-30T05:12:45;7.50;;;4.30;;
62535;SDS011;63050;47.514;18.920;2024-01-30T05:17:46;8.60;;;4.70;;
62535;SDS011;63050;47.514;18.920;2024-01-30T05:22:48;9.10;;;4.40;;
62535;SDS011;63050;47.514;18.920;2024-01-30T05:27:49;8.20;;;5.00;;
62535;SDS011;63050;47.514;18.920;2024-01-30T05:32:50;9.00;;;4.20;;
62535;SDS011;63050;47.514;18.920;2024-01-30T05:37:51;8.70;;;4.30;;
62535;SDS011;63050;47.514;18.920;2024-01-30T05:42:52;8.70;;;4.20;;
62535;SDS011;63050;47.514;18.920;2024-01-30T05:47:54;7.50;;;4.10;;
62535;SDS011;63050;47.514;18.920;2024-01-30T05:52:55;7.30;;;3.60;;
62535;SDS011;63050;47.514;18.920;2024-01-30T05:57:57;10.00;;;4.60;;
62535;SDS011;63050;47.514;18.920;2024-01-30T06:02:59;10.00;;;4.10;;
62535;SDS011;63050;47.514;18.920;2024-01-30T06:08:02;11.30;;;4.80;;
62535;SDS011;63050;47.514;18.920;2024-01-30T06:13:03;11.50;;;5.30;;
62535;SDS011;63050;47.514;18.920;2024-01-30T06:18:04;12.00;;;5.30;;
62535;SDS011;63050;47.514;18.920;2024-01-30T06:23:06;10.50;;;5.30;;
62535;SDS011;63050;47.514;18.920;2024-01-30T06:28:08;9.50;;;5.00;;
62535;SDS011;63050;47.514;18.920;2024-01-30T06:33:11;7.20;;;4.20;;
62535;SDS011;63050;47.514;18.920;2024-01-30T06:38:14;9.80;;;4.40;;
62535;SDS011;63050;47.514;18.920;2024-01-30T06:43:16;7.90;;;3.90;;
62535;SDS011;63050;47.514;18.920;2024-01-30T06:48:17;7.80;;;4.00;;
62535;SDS011;63050;47.514;18.920;2024-01-30T06:53:19;11.90;;;5.30;;
62535;SDS011;63050;47.514;18.920;2024-01-30T06:58:20;9.00;;;4.40;;
62535;SDS011;63050;47.514;18.920;2024-01-30T07:03:21;15.50;;;4.40;;
62535;SDS011;63050;47.514;18.920;2024-01-30T07:08:23;8.40;;;4.80;;
62535;SDS011;63050;47.514;18.920;2024-01-30T07:13:25;8.20;;;4.70;;
62535;SDS011;63050;47.514;18.920;2024-01-30T07:18:26;10.30;;;5.50;;
62535;SDS011;63050;47.514;18.920;2024-01-30T07:23:28;15.30;;;6.00;;
62535;SDS011;63050;47.514;18.920;2024-01-30T07:28:30;12.40;;;5.90;;
62535;SDS011;63050;47.514;18.920;2024-01-30T07:33:32;13.30;;;6.90;;
62535;SDS011;63050;47.514;18.920;2024-01-30T07:38:34;17.00;;;7.80;;
62535;SDS011;63050;47.514;18.920;2024-01-30T07:43:37;15.30;;;7.20;;
62535;SDS011;63050;47.514;18.920;2024-01-30T07:48:39;14.00;;;7.60;;
62535;SDS011;63050;47.514;18.920;2024-01-30T07:53:41;13.80;;;7.20;;
62535;SDS011;63050;47.514;18.920;2024-01-30T07:58:43;16.00;;;8.00;;
62535;SDS011;63050;47.514;18.920;2024-01-30T08:03:45;14.10;;;7.70;;
62535;SDS011;63050;47.514;18.920;2024-01-30T08:14:13;18.10;;;9.30;;
62535;SDS011;63050;47.514;18.920;2024-01-30T08:19:15;20.70;;;9.30;;
62535;SDS011;63050;47.514;18.920;2024-01-30T08:24:16;18.10;;;9.50;;
62535;SDS011;63050;47.514;18.920;2024-01-30T08:29:18;19.60;;;9.60;;
62535;SDS011;63050;47.514;18.920;2024-01-30T08:34:19;23.20;;;12.70;;
62535;SDS011;63050;47.514;18.920;2024-01-30T08:39:21;18.70;;;10.00;;
62535;SDS011;63050;47.514;18.920;2024-01-30T08:44:23;15.70;;;9.50;;
62535;SDS011;63050;47.514;18.920;2024-01-30T08:49:25;21.20;;;11.00;;
62535;SDS011;63050;47.514;18.920;2024-01-30T08:54:27;23.30;;;13.60;;
62535;SDS011;63050;47.514;18.920;2024-01-30T08:59:29;22.60;;;12.60;;
62535;SDS011;63050;47.514;18.920;2024-01-30T09:04:31;21.30;;;14.20;;
62535;SDS011;63050;47.514;18.920;2024-01-30T09:09:33;23.70;;;13.10;;
62535;SDS011;63050;47.514;18.920;2024-01-30T09:14:34;22.60;;;14.50;;
62535;SDS011;63050;47.514;18.920;2024-01-30T09:19:36;21.90;;;13.90;;
62535;SDS011;63050;47.514;18.920;2024-01-30T09:24:38;26.00;;;15.10;;
62535;SDS011;63050;47.514;18.920;2024-01-30T09:29:39;26.60;;;15.90;;
62535;SDS011;63050;47.514;18.920;2024-01-30T09:34:40;20.50;;;13.60;;
62535;SDS011;63050;47.514;18.920;2024-01-30T09:39:42;18.50;;;12.30;;
62535;SDS011;63050;47.514;18.920;2024-01-30T09:44:43;18.90;;;12.90;;
62535;SDS011;63050;47.514;18.920;2024-01-30T09:49:45;15.60;;;10.90;;
62535;SDS011;63050;47.514;18.920;2024-01-30T09:54:47;18.70;;;12.60;;
62535;SDS011;63050;47.514;18.920;2024-01-30T09:59:50;19.00;;;12.20;;
62535;SDS011;63050;47.514;18.920;2024-01-30T10:04:52;16.40;;;12.80;;
62535;SDS011;63050;47.514;18.920;2024-01-30T10:09:54;21.40;;;13.50;;
62535;SDS011;63050;47.514;18.920;2024-01-30T10:14:57;18.10;;;12.50;;
62535;SDS011;63050;47.514;18.920;2024-01-30T10:19:58;16.40;;;11.80;;
62535;SDS011;63050;47.514;18.920;2024-01-30T10:25:00;18.90;;;13.90;;
62535;SDS011;63050;47.514;18.920;2024-01-30T10:30:01;20.80;;;13.70;;
62535;SDS011;63050;47.514;18.920;2024-01-30T10:35:04;16.60;;;11.50;;
62535;SDS011;63050;47.514;18.920;2024-01-30T10:40:06;17.70;;;12.60;;
62535;SDS011;63050;47.514;18.920;2024-01-30T10:45:10;20.00;;;13.20;;
62535;SDS011;63050;47.514;18.920;2024-01-30T10:50:19;18.60;;;12.80;;
62535;SDS011;63050;47.514;18.920;2024-01-30T10:55:22;21.10;;;14.20;;
62535;SDS011;63050;47.514;18.920;2024-01-30T11:00:29;20.10;;;13.30;;
62535;SDS011;63050;47.514;18.920;2024-01-30T11:05:33;21.00;;;14.30;;
62535;SDS011;63050;47.514;18.920;2024-01-30T11:10:44;20.10;;;15.10;;
62535;SDS011;63050;47.514;18.920;2024-01-30T11:15:47;25.40;;;16.70;;
62535;SDS011;63050;47.514;18.920;2024-01-30T11:20:49;26.70;;;17.50;;
62535;SDS011;63050;47.514;18.920;2024-01-30T11:25:52;20.30;;;14.90;;
62535;SDS011;63050;47.514;18.920;2024-01-30T11:31:02;23.10;;;15.20;;
62535;SDS011;63050;47.514;18.920;2024-01-30T11:36:04;17.60;;;13.20;;
62535;SDS011;63050;47.514;18.920;2024-01-30T11:41:07;19.10;;;13.00;;
62535;SDS011;63050;47.514;18.920;2024-01-30T11:46:09;19.80;;;12.90;;
62535;SDS011;63050;47.514;18.920;2024-01-30T11:51:12;18.60;;;13.30;;
62535;SDS011;63050;47.514;18.920;2024-01-30T11:56:14;19.90;;;13.20;;
62535;SDS011;63050;47.514;18.920;2024-01-30T12:01:16;19.60;;;12.10;;
62535;SDS011;63050;47.514;18.920;2024-01-30T12:06:18;17.90;;;12.00;;
62535;SDS011;63050;47.514;18.920;2024-01-30T12:11:19;16.40;;;11.50;;
62535;SDS011;63050;47.514;18.920;2024-01-30T12:16:21;15.70;;;11.70;;
62535;SDS011;63050;47.514;18.920;2024-01-30T12:21:23;16.00;;;11.10;;
62535;SDS011;63050;47.514;18.920;2024-01-30T12:26:25;13.50;;;10.60;;
62535;SDS011;63050;47.514;18.920;2024-01-30T12:31:27;16.80;;;11.30;;
62535;SDS011;63050;47.514;18.920;2024-01-30T12:36:29;14.20;;;10.30;;
62535;SDS011;63050;47.514;18.920;2024-01-30T12:41:32;12.20;;;9.00;;
62535;SDS011;63050;47.514;18.920;2024-01-30T12:46:36;12.00;;;9.10;;
62535;SDS011;63050;47.514;18.920;2024-01-30T12:51:37;15.20;;;9.30;;
62535;SDS011;63050;47.514;18.920;2024-01-30T12:56:40;12.00;;;9.00;;
62535;SDS011;63050;47.514;18.920;2024-01-30T13:01:41;8.80;;;5.80;;
62535;SDS011;63050;47.514;18.920;2024-01-30T13:06:43;6.90;;;4.90;;
62535;SDS011;63050;47.514;18.920;2024-01-30T13:11:45;7.30;;;5.10;;
62535;SDS011;63050;47.514;18.920;2024-01-30T13:16:47;9.40;;;5.70;;
62535;SDS011;63050;47.514;18.920;2024-01-30T13:21:48;9.80;;;5.90;;
62535;SDS011;63050;47.514;18.920;2024-01-30T13:26:50;9.00;;;6.30;;
62535;SDS011;63050;47.514;18.920;2024-01-30T13:31:52;8.50;;;5.60;;
62535;SDS011;63050;47.514;18.920;2024-01-30T13:36:53;9.80;;;6.60;;
62535;SDS011;63050;47.514;18.920;2024-01-30T13:41:54;7.40;;;5.60;;
62535;SDS011;63050;47.514;18.920;2024-01-30T13:46:55;7.70;;;6.20;;
62535;SDS011;63050;47.514;18.920;2024-01-30T13:51:57;8.10;;;6.30;;
62535;SDS011;63050;47.514;18.920;2024-01-30T13:57:00;10.80;;;6.40;;
62535;SDS011;63050;47.514;18.920;2024-01-30T14:02:01;13.90;;;8.10;;
62535;SDS011;63050;47.514;18.920;2024-01-30T14:07:03;10.10;;;7.40;;
62535;SDS011;63050;47.514;18.920;2024-01-30T14:12:05;9.30;;;6.70;;
62535;SDS011;63050;47.514;18.920;2024-01-30T14:17:06;12.00;;;8.50;;
62535;SDS011;63050;47.514;18.920;2024-01-30T14:22:08;12.30;;;8.30;;
62535;SDS011;63050;47.514;18.920;2024-01-30T14:27:10;15.80;;;9.30;;
62535;SDS011;63050;47.514;18.920;2024-01-30T14:32:11;14.20;;;9.60;;
62535;SDS011;63050;47.514;18.920;2024-01-30T14:37:12;14.50;;;9.70;;
62535;SDS011;63050;47.514;18.920;2024-01-30T14:42:14;11.80;;;8.40;;
62535;SDS011;63050;47.514;18.920;2024-01-30T14:47:16;12.80;;;8.90;;
62535;SDS011;63050;47.514;18.920;2024-01-30T14:52:17;11.30;;;8.60;;
62535;SDS011;63050;47.514;18.920;2024-01-30T14:57:18;13.40;;;11.00;;
62535;SDS011;63050;47.514;18.920;2024-01-30T15:02:20;14.30;;;10.20;;
62535;SDS011;63050;47.514;18.920;2024-01-30T15:07:22;16.90;;;10.00;;
62535;SDS011;63050;47.514;18.920;2024-01-30T15:12:23;13.20;;;10.80;;
62535;SDS011;63050;47.514;18.920;2024-01-30T15:17:24;14.40;;;11.70;;
62535;SDS011;63050;47.514;18.920;2024-01-30T15:22:25;13.10;;;10.00;;
62535;SDS011;63050;47.514;18.920;2024-01-30T15:27:27;16.80;;;9.90;;
62535;SDS011;63050;47.514;18.920;2024-01-30T15:32:28;14.30;;;9.70;;
62535;SDS011;63050;47.514;18.920;2024-01-30T15:37:29;15.80;;;11.10;;
62535;SDS011;63050;47.514;18.920;2024-01-30T15:42:31;15.00;;;10.30;;
62535;SDS011;63050;47.514;18.920;2024-01-30T15:47:33;16.90;;;11.90;;
62535;SDS011;63050;47.514;18.920;2024-01-30T15:52:34;16.90;;;11.50;;
62535;SDS011;63050;47.514;18.920;2024-01-30T15:57:36;16.30;;;12.10;;
62535;SDS011;63050;47.514;18.920;2024-01-30T16:02:37;18.40;;;12.10;;
62535;SDS011;63050;47.514;18.920;2024-01-30T16:07:38;19.60;;;12.60;;
62535;SDS011;63050;47.514;18.920;2024-01-30T16:12:39;20.00;;;12.80;;
62535;SDS011;63050;47.514;18.920;2024-01-30T16:17:46;19.60;;;12.40;;
62535;SDS011;63050;47.514;18.920;2024-01-30T16:22:47;19.00;;;11.00;;
62535;SDS011;63050;47.514;18.920;2024-01-30T16:27:50;17.50;;;11.30;;
62535;SDS011;63050;47.514;18.920;2024-01-30T16:32:51;18.10;;;10.70;;
62535;SDS011;63050;47.514;18.920;2024-01-30T16:37:52;14.50;;;9.60;;
62535;SDS011;63050;47.514;18.920;2024-01-30T16:42:54;19.40;;;10.40;;
62535;SDS011;63050;47.514;18.920;2024-01-30T16:47:55;13.50;;;9.40;;
62535;SDS011;63050;47.514;18.920;2024-01-30T16:52:56;13.90;;;9.80;;
62535;SDS011;63050;47.514;18.920;2024-01-30T16:57:58;16.00;;;9.50;;
62535;SDS011;63050;47.514;18.920;2024-01-30T17:02:59;14.60;;;9.90;;
62535;SDS011;63050;47.514;18.920;2024-01-30T17:08:01;21.20;;;10.30;;
62535;SDS011;63050;47.514;18.920;2024-01-30T17:13:02;17.70;;;11.30;;
62535;SDS011;63050;47.514;18.920;2024-01-30T17:18:04;18.20;;;11.20;;
62535;SDS011;63050;47.514;18.920;2024-01-30T17:23:05;17.80;;;10.90;;
62535;SDS011;63050;47.514;18.920;2024-01-30T17:28:08;18.10;;;10.00;;
62535;SDS011;63050;47.514;18.920;2024-01-30T17:33:10;16.00;;;10.30;;
62535;SDS011;63050;47.514;18.920;2024-01-30T17:38:11;18.20;;;11.10;;
62535;SDS011;63050;47.514;18.920;2024-01-30T17:43:13;16.70;;;10.00;;
62535;SDS011;63050;47.514;18.920;2024-01-30T17:48:14;16.20;;;11.00;;
62535;SDS011;63050;47.514;18.920;2024-01-30T17:53:15;15.70;;;8.90;;
62535;SDS011;63050;47.514;18.920;2024-01-30T17:58:17;17.50;;;10.50;;
62535;SDS011;63050;47.514;18.920;2024-01-30T18:03:19;16.50;;;8.90;;
62535;SDS011;63050;47.514;18.920;2024-01-30T18:08:21;14.10;;;8.40;;
62535;SDS011;63050;47.514;18.920;2024-01-30T18:13:23;16.70;;;9.20;;
62535;SDS011;63050;47.514;18.920;2024-01-30T18:18:25;14.70;;;8.00;;
62535;SDS011;63050;47.514;18.920;2024-01-30T18:23:27;14.50;;;9.30;;
62535;SDS011;63050;47.514;18.920;2024-01-30T18:28:29;10.90;;;7.60;;
62535;SDS011;63050;47.514;18.920;2024-01-30T18:33:31;15.00;;;9.30;;
62535;SDS011;63050;47.514;18.920;2024-01-30T18:38:32;17.70;;;9.10;;
62535;SDS011;63050;47.514;18.920;2024-01-30T18:43:34;14.00;;;9.30;;
62535;SDS011;63050;47.514;18.920;2024-01-30T18:48:37;16.00;;;9.70;;
62535;SDS011;63050;47.514;18.920;2024-01-30T18:53:39;18.20;;;11.00;;
62535;SDS011;63050;47.514;18.920;2024-01-30T18:58:41;17.10;;;9.50;;
62535;SDS011;63050;47.514;18.920;2024-01-30T19:03:43;16.30;;;9.80;;
62535;SDS011;63050;47.514;18.920;2024-01-30T19:08:47;17.50;;;9.80;;
62535;SDS011;63050;47.514;18.920;2024-01-30T19:13:49;19.20;;;10.80;;
62535;SDS011;63050;47.514;18.920;2024-01-30T19:18:52;17.20;;;10.90;;
62535;SDS011;63050;47.514;18.920;2024-01-30T19:23:56;21.30;;;11.70;;
62535;SDS011;63050;47.514;18.920;2024-01-30T19:29:01;20.70;;;12.20;;
62535;SDS011;63050;47.514;18.920;2024-01-30T19:34:04;22.20;;;14.00;;
62535;SDS011;63050;47.514;18.920;2024-01-30T19:39:06;23.50;;;12.00;;
62535;SDS011;63050;47.514;18.920;2024-01-30T19:44:14;23.60;;;13.00;;
62535;SDS011;63050;47.514;18.920;2024-01-30T19:49:17;24.10;;;13.70;;
62535;SDS011;63050;47.514;18.920;2024-01-30T19:54:19;23.70;;;13.30;;
62535;SDS011;63050;47.514;18.920;2024-01-30T19:59:23;22.10;;;12.60;;
62535;SDS011;63050;47.514;18.920;2024-01-30T20:04:24;26.10;;;13.20;;
62535;SDS011;63050;47.514;18.920;2024-01-30T20:09:26;17.90;;;12.30;;
62535;SDS011;63050;47.514;18.920;2024-01-30T20:14:28;25.40;;;13.60;;
62535;SDS011;63050;47.514;18.920;2024-01-30T20:19:30;23.10;;;13.00;;
62535;SDS011;63050;47.514;18.920;2024-01-30T20:24:31;23.50;;;13.40;;
62535;SDS011;63050;47.514;18.920;2024-01-30T20:29:33;23.70;;;12.90;;
62535;SDS011;63050;47.514;18.920;2024-01-30T20:34:34;24.60;;;13.50;;
62535;SDS011;63050;47.514;18.920;2024-01-30T20:39:36;26.90;;;12.70;;
62535;SDS011;63050;47.514;18.920;2024-01-30T20:44:40;21.30;;;11.90;;
62535;SDS011;63050;47.514;18.920;2024-01-30T20:49:44;26.90;;;13.80;;
62535;SDS011;63050;47.514;18.920;2024-01-30T20:54:47;25.90;;;12.50;;
62535;SDS011;63050;47.514;18.920;2024-01-30T20:59:49;23.80;;;12.90;;
62535;SDS011;63050;47.514;18.920;2024-01-30T21:04:51;22.20;;;12.40;;
62535;SDS011;63050;47.514;18.920;2024-01-30T21:09:53;21.60;;;11.70;;
62535;SDS011;63050;47.514;18.920;2024-01-30T21:14:55;23.30;;;13.60;;
62535;SDS011;63050;47.514;18.920;2024-01-30T21:19:57;21.50;;;11.80;;
62535;SDS011;63050;47.514;18.920;2024-01-30T21:24:59;19.50;;;12.10;;
62535;SDS011;63050;47.514;18.920;2024-01-30T21:30:00;21.20;;;12.00;;
62535;SDS011;63050;47.514;18.920;2024-01-30T21:35:02;21.20;;;11.80;;
62535;SDS011;63050;47.514;18.920;2024-01-30T21:40:04;25.90;;;12.30;;
62535;SDS011;63050;47.514;18.920;2024-01-30T21:45:06;20.60;;;11.50;;
62535;SDS011;63050;47.514;18.920;2024-01-30T21:50:08;20.70;;;12.10;;
62535;SDS011;63050;47.514;18.920;2024-01-30T21:55:09;20.50;;;12.00;;
62535;SDS011;63050;47.514;18.920;2024-01-30T22:00:11;20.70;;;12.60;;
62535;SDS011;63050;47.514;18.920;2024-01-30T22:05:13;22.90;;;12.40;;
62535;SDS011;63050;47.514;18.920;2024-01-30T22:10:15;22.00;;;12.00;;
62535;SDS011;63050;47.514;18.920;2024-01-30T22:15:17;21.20;;;12.00;;
62535;SDS011;63050;47.514;18.920;2024-01-30T22:20:19;19.60;;;11.90;;
62535;SDS011;63050;47.514;18.920;2024-01-30T22:25:21;20.10;;;11.40;;
62535;SDS011;63050;47.514;18.920;2024-01-30T22:30:23;19.60;;;11.60;;
62535;SDS011;63050;47.514;18.920;2024-01-30T22:35:25;21.60;;;12.30;;
62535;SDS011;63050;47.514;18.920;2024-01-30T22:40:26;18.70;;;10.90;;
62535;SDS011;63050;47.514;18.920;2024-01-30T22:45:28;20.20;;;12.30;;
62535;SDS011;63050;47.514;18.920;2024-01-30T22:50:30;20.90;;;11.70;;
62535;SDS011;63050;47.514;18.920;2024-01-30T22:55:31;20.10;;;11.80;;
62535;SDS011;63050;47.514;18.920;2024-01-30T23:00:33;17.60;;;11.50;;
62535;SDS011;63050;47.514;18.920;2024-01-30T23:05:37;22.00;;;11.90;;
62535;SDS011;63050;47.514;18.920;2024-01-30T23:10:38;20.60;;;11.90;;
62535;SDS011;63050;47.514;18.920;2024-01-30T23:15:39;21.40;;;11.30;;
62535;SDS011;63050;47.514;18.920;2024-01-30T23:20:41;19.40;;;12.10;;
62535;SDS011;63050;47.514;18.920;2024-01-30T23:25:42;19.50;;;12.20;;
62535;SDS011;63050;47.514;18.920;2024-01-30T23:30:44;22.10;;;12.20;;
62535;SDS011;63050;47.514;18.920;2024-01-30T23:35:46;22.50;;;11.70;;
62535;SDS011;63050;47.514;18.920;2024-01-30T23:40:49;20.30;;;11.40;;
62535;SDS011;63050;47.514;18.920;2024-01-30T23:45:52;19.90;;;11.80;;
62535;SDS011;63050;47.514;18.920;2024-01-30T23:50:54;19.40;;;11.70;;
62535;SDS011;63050;47.514;18.920;2024-01-30T23:55:55;17.60;;;12.00;;
